createdAt,value
2022-11-20T00:02:33.554Z,66.00
2022-11-20T00:07:37.513Z,66.00
2022-11-20T00:12:42.481Z,66.00
2022-11-20T00:17:45.871Z,66.10
2022-11-20T00:22:49.365Z,66.20
2022-11-20T00:27:54.250Z,66.10
2022-11-20T00:32:59.240Z,66.20
2022-11-20T00:38:02.612Z,66.00
2022-11-20T00:43:07.331Z,65.90
2022-11-20T00:48:10.974Z,65.90
2022-11-20T00:53:14.311Z,65.80
2022-11-20T00:58:19.359Z,65.80
2022-11-20T01:03:27.013Z,65.90
2022-11-20T01:08:32.971Z,65.80
2022-11-20T01:13:41.974Z,65.90
2022-11-20T01:18:47.427Z,65.80
2022-11-20T01:23:52.325Z,65.80
2022-11-20T01:28:58.051Z,65.80
2022-11-20T01:34:03.207Z,65.80
2022-11-20T01:39:08.526Z,65.90
2022-11-20T01:44:16.836Z,66.00
2022-11-20T01:49:24.536Z,66.00
2022-11-20T01:54:33.469Z,66.10
2022-11-20T01:59:42.915Z,65.90
2022-11-20T02:04:47.055Z,66.00
2022-11-20T02:09:53.768Z,66.10
2022-11-20T02:15:03.065Z,66.20
2022-11-20T02:20:08.051Z,66.20
2022-11-20T02:25:13.425Z,66.10
2022-11-20T02:30:16.962Z,66.10
2022-11-20T02:35:44.029Z,66.10
2022-11-20T02:40:54.092Z,66.10
2022-11-20T02:45:58.828Z,66.10
2022-11-20T02:51:02.741Z,66.40
2022-11-20T02:56:08.818Z,66.40
2022-11-20T03:01:12.607Z,66.50
2022-11-20T03:06:16.290Z,66.40
2022-11-20T03:11:21.354Z,66.40
2022-11-20T03:16:25.672Z,66.40
2022-11-20T03:21:29.501Z,66.50
2022-11-20T03:26:34.280Z,66.40
2022-11-20T03:31:41.257Z,66.40
2022-11-20T03:36:45.150Z,66.40
2022-11-20T03:41:49.928Z,66.30
2022-11-20T03:46:53.305Z,66.30
2022-11-20T03:51:56.925Z,66.20
2022-11-20T03:57:01.608Z,66.20
2022-11-20T04:02:05.011Z,66.20
2022-11-20T04:07:08.626Z,66.10
2022-11-20T04:12:13.325Z,66.10
2022-11-20T04:17:16.755Z,65.80
2022-11-20T04:22:20.146Z,66.00
2022-11-20T04:27:25.116Z,66.20
2022-11-20T04:32:28.505Z,66.20
2022-11-20T04:37:31.885Z,66.60
2022-11-20T04:42:36.543Z,66.80
2022-11-20T04:47:39.856Z,66.80
2022-11-20T04:52:43.272Z,66.70
2022-11-20T04:57:51.454Z,66.60
2022-11-20T05:02:54.856Z,66.50
2022-11-20T05:07:59.051Z,66.40
2022-11-20T05:13:04.183Z,66.20
2022-11-20T05:18:08.345Z,66.30
2022-11-20T05:23:11.767Z,66.30
2022-11-20T05:28:16.775Z,66.30
2022-11-20T05:33:20.427Z,66.50
2022-11-20T05:38:23.821Z,66.30
2022-11-20T05:43:28.573Z,66.20
2022-11-20T05:48:32.399Z,66.30
2022-11-20T05:53:36.598Z,66.40
2022-11-20T05:58:42.404Z,66.50
2022-11-20T06:03:48.741Z,66.60
2022-11-20T06:08:52.494Z,66.60
2022-11-20T06:13:57.590Z,66.60
2022-11-20T06:19:01.002Z,66.60
2022-11-20T06:24:04.627Z,66.70
2022-11-20T06:29:09.707Z,66.70
2022-11-20T06:34:13.425Z,66.90
2022-11-20T06:39:16.803Z,66.90
2022-11-20T06:44:21.505Z,67.00
2022-11-20T06:49:26.138Z,67.10
2022-11-20T06:54:29.545Z,67.10
2022-11-20T06:59:34.541Z,67.10
2022-11-20T07:04:38.175Z,67.10
2022-11-20T07:09:41.548Z,67.20
2022-11-20T07:14:46.257Z,67.30
2022-11-20T07:19:49.935Z,67.20
2022-11-20T07:24:53.248Z,67.20
2022-11-20T07:29:58.067Z,67.20
2022-11-20T07:35:01.654Z,67.20
2022-11-20T07:40:05.835Z,67.40
2022-11-20T07:45:11.606Z,67.50
2022-11-20T07:50:15.600Z,67.60
2022-11-20T07:55:19.412Z,67.70
2022-11-20T08:00:24.564Z,67.90
2022-11-20T08:05:27.932Z,68.00
2022-11-20T08:10:31.369Z,68.00
2022-11-20T08:15:37.382Z,68.10
2022-11-20T08:20:40.797Z,68.30
2022-11-20T08:25:44.162Z,68.20
2022-11-20T08:30:48.924Z,68.30
2022-11-20T08:35:52.261Z,68.20
2022-11-20T08:41:16.625Z,68.80
2022-11-20T08:46:21.646Z,68.40
2022-11-20T08:51:25.015Z,68.20
2022-11-20T08:56:28.759Z,68.30
2022-11-20T09:01:33.548Z,68.40
2022-11-20T09:06:36.976Z,68.30
2022-11-20T09:11:40.383Z,68.30
2022-11-20T09:16:47.153Z,68.20
2022-11-20T09:21:50.541Z,68.20
2022-11-20T09:26:53.998Z,68.10
2022-11-20T09:31:58.899Z,68.00
2022-11-20T09:37:06.160Z,68.00
2022-11-20T09:42:24.984Z,67.80
2022-11-20T09:47:44.590Z,67.80
2022-11-20T09:52:54.796Z,67.70
2022-11-20T09:57:59.942Z,67.60
2022-11-20T10:03:14.053Z,67.70
2022-11-20T10:08:23.632Z,67.60
2022-11-20T10:13:38.414Z,67.50
2022-11-20T10:18:58.303Z,67.40
2022-11-20T10:24:18.933Z,67.40
2022-11-20T10:29:31.505Z,68.20
2022-11-20T10:34:46.190Z,67.20
2022-11-20T10:39:53.613Z,67.00
2022-11-20T10:45:06.956Z,66.80
2022-11-20T10:50:22.152Z,66.40
2022-11-20T10:55:34.935Z,66.30
2022-11-20T11:00:38.397Z,66.10
2022-11-20T11:05:50.959Z,65.60
2022-11-20T11:10:58.242Z,65.60
2022-11-20T11:16:02.309Z,65.60
2022-11-20T11:21:08.023Z,65.60
2022-11-20T11:26:22.159Z,65.10
2022-11-20T11:31:27.079Z,64.10
2022-11-20T11:36:32.349Z,61.90
2022-11-20T11:41:36.943Z,61.90
2022-11-20T11:46:44.219Z,62.30
2022-11-20T11:52:07.399Z,61.50
2022-11-20T11:57:18.836Z,62.90
2022-11-20T12:02:33.386Z,61.60
2022-11-20T12:07:47.277Z,61.30
2022-11-20T12:12:57.202Z,62.10
2022-11-20T12:18:02.785Z,61.20
2022-11-20T12:23:17.214Z,60.40
2022-11-20T12:28:44.678Z,60.10
2022-11-20T12:33:57.916Z,60.00
2022-11-20T12:39:19.969Z,61.10
2022-11-20T12:45:03.989Z,61.50
2022-11-20T12:50:15.346Z,61.40
2022-11-20T12:55:27.610Z,61.30
2022-11-20T13:00:34.384Z,61.10
2022-11-20T13:05:52.677Z,60.80
2022-11-20T13:11:03.493Z,60.30
2022-11-20T13:16:13.412Z,59.90
2022-11-20T13:21:20.016Z,59.70
2022-11-20T13:26:26.222Z,59.10
2022-11-20T13:31:34.843Z,58.80
2022-11-20T13:36:38.223Z,58.50
2022-11-20T13:41:43.682Z,58.20
2022-11-20T13:46:48.748Z,57.80
2022-11-20T13:51:56.187Z,57.70
2022-11-20T13:57:14.809Z,57.40
2022-11-20T14:02:20.753Z,57.40
2022-11-20T14:07:29.352Z,57.20
2022-11-20T14:12:37.810Z,57.20
2022-11-20T14:17:41.213Z,57.10
2022-11-20T14:22:51.239Z,57.10
2022-11-20T14:27:57.996Z,57.10
2022-11-20T14:33:05.347Z,57.10
2022-11-20T14:38:14.029Z,57.20
2022-11-20T14:43:25.352Z,57.30
2022-11-20T14:48:33.873Z,57.20
2022-11-20T14:53:37.323Z,57.20
2022-11-20T14:58:42.075Z,57.20
2022-11-20T15:03:45.573Z,57.30
2022-11-20T15:08:53.345Z,57.50
2022-11-20T15:13:58.963Z,57.50
2022-11-20T15:19:18.865Z,57.90
2022-11-20T15:24:22.552Z,58.00
2022-11-20T15:29:28.236Z,58.10
2022-11-20T15:34:31.589Z,58.20
2022-11-20T15:39:35.249Z,58.40
2022-11-20T15:44:39.987Z,58.70
2022-11-20T15:49:43.434Z,59.20
2022-11-20T15:54:46.853Z,59.50
2022-11-20T15:59:51.624Z,59.80
2022-11-20T16:04:55.003Z,60.00
2022-11-20T16:09:58.470Z,60.00
2022-11-20T16:15:29.056Z,60.10
2022-11-20T16:20:32.441Z,60.10
2022-11-20T16:25:36.326Z,60.10
2022-11-20T16:30:41.752Z,60.20
2022-11-20T16:35:45.609Z,60.30
2022-11-20T16:40:49.026Z,60.50
2022-11-20T16:45:54.286Z,60.70
2022-11-20T16:50:57.689Z,60.80
2022-11-20T16:56:10.540Z,60.90
2022-11-20T17:01:17.802Z,61.00
2022-11-20T17:06:22.782Z,61.10
2022-11-20T17:11:30.093Z,61.80
2022-11-20T17:16:35.699Z,63.20
2022-11-20T17:21:39.760Z,66.20
2022-11-20T17:26:49.053Z,68.80
2022-11-20T17:31:55.642Z,70.90
2022-11-20T17:36:59.305Z,72.50
2022-11-20T17:42:20.461Z,73.70
2022-11-20T17:47:25.652Z,75.10
2022-11-20T17:52:29.040Z,75.80
2022-11-20T17:57:49.958Z,75.90
2022-11-20T18:02:55.309Z,75.90
2022-11-20T18:07:58.647Z,76.40
2022-11-20T18:13:02.477Z,77.30
2022-11-20T18:18:07.504Z,77.30
2022-11-20T18:23:10.868Z,77.90
2022-11-20T18:28:14.503Z,78.30
2022-11-20T18:33:23.037Z,78.30
2022-11-20T18:38:28.987Z,79.10
2022-11-20T18:43:50.003Z,78.90
2022-11-20T18:48:54.800Z,78.50
2022-11-20T18:53:59.427Z,78.50
2022-11-20T18:59:03.998Z,78.50
2022-11-20T19:04:10.734Z,77.20
2022-11-20T19:09:14.894Z,76.10
2022-11-20T19:14:18.365Z,75.10
2022-11-20T19:19:23.443Z,74.50
2022-11-20T19:24:30.003Z,74.00
2022-11-20T19:29:33.450Z,73.70
2022-11-20T19:34:38.805Z,73.40
2022-11-20T19:39:42.664Z,73.10
2022-11-20T19:44:46.206Z,73.00
2022-11-20T19:49:51.301Z,72.90
2022-11-20T19:54:54.790Z,72.70
2022-11-20T19:59:58.422Z,72.70
2022-11-20T20:05:03.233Z,72.50
2022-11-20T20:10:08.029Z,72.40
2022-11-20T20:15:11.552Z,72.20
2022-11-20T20:20:17.276Z,71.80
2022-11-20T20:25:20.666Z,71.60
2022-11-20T20:30:24.086Z,71.40
2022-11-20T20:35:29.414Z,71.10
2022-11-20T20:40:32.886Z,71.10
2022-11-20T20:45:36.758Z,71.00
2022-11-20T20:50:41.742Z,70.90
2022-11-20T20:55:55.099Z,70.70
2022-11-20T21:01:02.133Z,70.70
2022-11-20T21:06:08.062Z,71.60
2022-11-20T21:11:13.507Z,70.40
2022-11-20T21:16:19.089Z,70.50
2022-11-20T21:21:44.307Z,70.30
2022-11-20T21:26:49.557Z,70.20
2022-11-20T21:31:54.105Z,70.20
2022-11-20T21:36:59.067Z,70.40
2022-11-20T21:42:02.676Z,70.20
2022-11-20T21:47:06.422Z,70.20
2022-11-20T21:52:11.212Z,71.10
2022-11-20T21:57:14.629Z,70.10
2022-11-20T22:02:18.040Z,70.00
2022-11-20T22:07:23.958Z,69.90
2022-11-20T22:12:27.738Z,69.90
2022-11-20T22:17:48.753Z,70.10
2022-11-20T22:22:53.479Z,70.10
2022-11-20T22:27:56.948Z,70.10
2022-11-20T22:33:00.485Z,70.20
2022-11-20T22:38:05.650Z,70.50
2022-11-20T22:43:09.057Z,70.50
2022-11-20T22:48:12.535Z,70.20
2022-11-20T22:53:17.499Z,70.20
2022-11-20T22:58:20.979Z,70.10
2022-11-20T23:03:24.500Z,70.00
2022-11-20T23:08:29.773Z,69.90
2022-11-20T23:13:33.944Z,69.80
2022-11-20T23:18:38.194Z,69.60
2022-11-20T23:23:44.034Z,69.50
2022-11-20T23:28:47.689Z,69.40
2022-11-20T23:33:51.781Z,69.30
2022-11-20T23:38:56.849Z,69.10
2022-11-20T23:44:00.492Z,69.10
2022-11-20T23:49:03.886Z,69.10
2022-11-20T23:54:08.731Z,69.00
2022-11-20T23:59:12.196Z,69.00
